sensor_id;sensor_type;location;lat;lon;timestamp;temperature;humidity
20732;DHT22;10527;52.124;5.196;2023-02-10T00:01:41;2.40;99.90
20732;DHT22;10527;52.124;5.196;2023-02-10T00:04:11;2.40;99.90
20732;DHT22;10527;52.124;5.196;2023-02-10T00:06:41;2.40;99.90
20732;DHT22;10527;52.124;5.196;2023-02-10T00:09:11;2.30;99.90
20732;DHT22;10527;52.124;5.196;2023-02-10T00:11:43;2.20;99.90
20732;DHT22;10527;52.124;5.196;2023-02-10T00:14:34;2.20;99.90
20732;DHT22;10527;52.124;5.196;2023-02-10T00:17:06;2.20;99.90
20732;DHT22;10527;52.124;5.196;2023-02-10T00:19:36;2.20;99.90
20732;DHT22;10527;52.124;5.196;2023-02-10T00:22:03;2.10;99.90
20732;DHT22;10527;52.124;5.196;2023-02-10T00:24:33;2.20;99.90
20732;DHT22;10527;52.124;5.196;2023-02-10T00:27:01;2.10;99.90
20732;DHT22;10527;52.124;5.196;2023-02-10T00:29:28;2.10;99.90
20732;DHT22;10527;52.124;5.196;2023-02-10T00:31:57;2.10;99.90
20732;DHT22;10527;52.124;5.196;2023-02-10T00:34:24;2.10;99.90
20732;DHT22;10527;52.124;5.196;2023-02-10T00:36:55;2.10;99.90
20732;DHT22;10527;52.124;5.196;2023-02-10T00:39:24;2.10;99.90
20732;DHT22;10527;52.124;5.196;2023-02-10T00:41:51;2.10;99.90
20732;DHT22;10527;52.124;5.196;2023-02-10T00:44:23;2.10;99.90
20732;DHT22;10527;52.124;5.196;2023-02-10T00:46:56;2.10;99.90
20732;DHT22;10527;52.124;5.196;2023-02-10T00:49:26;2.10;99.90
20732;DHT22;10527;52.124;5.196;2023-02-10T00:51:56;2.10;99.90
20732;DHT22;10527;52.124;5.196;2023-02-10T00:54:31;2.20;99.90
20732;DHT22;10527;52.124;5.196;2023-02-10T00:56:58;2.10;99.90
20732;DHT22;10527;52.124;5.196;2023-02-10T00:59:27;2.10;99.90
20732;DHT22;10527;52.124;5.196;2023-02-10T01:01:53;2.10;99.90
20732;DHT22;10527;52.124;5.196;2023-02-10T01:04:20;2.10;99.90
20732;DHT22;10527;52.124;5.196;2023-02-10T01:06:47;2.10;99.90
20732;DHT22;10527;52.124;5.196;2023-02-10T01:09:13;2.00;99.90
20732;DHT22;10527;52.124;5.196;2023-02-10T01:11:40;2.00;99.90
20732;DHT22;10527;52.124;5.196;2023-02-10T01:14:10;2.00;99.90
20732;DHT22;10527;52.124;5.196;2023-02-10T01:16:37;1.90;99.90
20732;DHT22;10527;52.124;5.196;2023-02-10T01:19:04;1.90;99.90
20732;DHT22;10527;52.124;5.196;2023-02-10T01:21:34;1.90;99.90
20732;DHT22;10527;52.124;5.196;2023-02-10T01:24:03;1.90;99.90
20732;DHT22;10527;52.124;5.196;2023-02-10T01:26:32;1.90;99.90
20732;DHT22;10527;52.124;5.196;2023-02-10T01:29:03;1.90;99.90
20732;DHT22;10527;52.124;5.196;2023-02-10T01:31:30;1.90;99.90
20732;DHT22;10527;52.124;5.196;2023-02-10T01:33:57;1.90;99.90
20732;DHT22;10527;52.124;5.196;2023-02-10T01:36:25;1.80;99.90
20732;DHT22;10527;52.124;5.196;2023-02-10T01:38:55;1.80;99.90
20732;DHT22;10527;52.124;5.196;2023-02-10T01:41:23;1.80;99.90
20732;DHT22;10527;52.124;5.196;2023-02-10T01:44:04;1.70;99.90
20732;DHT22;10527;52.124;5.196;2023-02-10T01:46:34;1.80;99.90
20732;DHT22;10527;52.124;5.196;2023-02-10T01:49:08;1.80;99.90
20732;DHT22;10527;52.124;5.196;2023-02-10T01:51:59;1.80;99.90
20732;DHT22;10527;52.124;5.196;2023-02-10T01:54:39;1.80;99.90
20732;DHT22;10527;52.124;5.196;2023-02-10T01:57:10;1.70;99.90
20732;DHT22;10527;52.124;5.196;2023-02-10T01:59:39;1.70;99.90
20732;DHT22;10527;52.124;5.196;2023-02-10T02:02:10;1.70;99.90
20732;DHT22;10527;52.124;5.196;2023-02-10T02:04:49;1.70;99.90
20732;DHT22;10527;52.124;5.196;2023-02-10T02:07:21;1.70;99.90
20732;DHT22;10527;52.124;5.196;2023-02-10T02:09:51;1.70;99.90
20732;DHT22;10527;52.124;5.196;2023-02-10T02:15:53;1.50;99.90
20732;DHT22;10527;52.124;5.196;2023-02-10T02:31:14;1.60;99.90
20732;DHT22;10527;52.124;5.196;2023-02-10T02:34:07;1.50;99.90
20732;DHT22;10527;52.124;5.196;2023-02-10T02:36:43;1.40;99.90
20732;DHT22;10527;52.124;5.196;2023-02-10T02:39:33;1.50;99.90
20732;DHT22;10527;52.124;5.196;2023-02-10T02:42:20;1.40;99.90
20732;DHT22;10527;52.124;5.196;2023-02-10T02:44:57;1.40;99.90
20732;DHT22;10527;52.124;5.196;2023-02-10T03:04:22;1.40;99.90
20732;DHT22;10527;52.124;5.196;2023-02-10T03:06:52;1.30;99.90
20732;DHT22;10527;52.124;5.196;2023-02-10T03:09:20;1.30;99.90
20732;DHT22;10527;52.124;5.196;2023-02-10T03:11:50;1.40;99.90
20732;DHT22;10527;52.124;5.196;2023-02-10T03:14:17;1.40;99.90
20732;DHT22;10527;52.124;5.196;2023-02-10T03:16:44;1.40;99.90
20732;DHT22;10527;52.124;5.196;2023-02-10T03:19:11;1.40;99.90
20732;DHT22;10527;52.124;5.196;2023-02-10T03:21:38;1.40;99.90
20732;DHT22;10527;52.124;5.196;2023-02-10T03:24:05;1.30;99.90
20732;DHT22;10527;52.124;5.196;2023-02-10T03:26:32;1.30;99.90
20732;DHT22;10527;52.124;5.196;2023-02-10T03:28:59;1.40;99.90
20732;DHT22;10527;52.124;5.196;2023-02-10T03:31:25;1.30;99.90
20732;DHT22;10527;52.124;5.196;2023-02-10T03:33:52;1.30;99.90
20732;DHT22;10527;52.124;5.196;2023-02-10T03:36:22;1.30;99.90
20732;DHT22;10527;52.124;5.196;2023-02-10T03:38:49;1.30;99.90
20732;DHT22;10527;52.124;5.196;2023-02-10T03:41:16;1.30;99.90
20732;DHT22;10527;52.124;5.196;2023-02-10T03:43:42;1.30;99.90
20732;DHT22;10527;52.124;5.196;2023-02-10T03:46:10;1.30;99.90
20732;DHT22;10527;52.124;5.196;2023-02-10T03:48:37;1.30;99.90
20732;DHT22;10527;52.124;5.196;2023-02-10T03:51:06;1.30;99.90
20732;DHT22;10527;52.124;5.196;2023-02-10T03:53:34;1.30;99.90
20732;DHT22;10527;52.124;5.196;2023-02-10T03:56:01;1.30;99.90
20732;DHT22;10527;52.124;5.196;2023-02-10T03:58:28;1.30;99.90
20732;DHT22;10527;52.124;5.196;2023-02-10T04:00:55;1.30;99.90
20732;DHT22;10527;52.124;5.196;2023-02-10T04:03:28;1.30;99.90
20732;DHT22;10527;52.124;5.196;2023-02-10T04:05:55;1.30;99.90
20732;DHT22;10527;52.124;5.196;2023-02-10T04:08:24;1.30;99.90
20732;DHT22;10527;52.124;5.196;2023-02-10T04:10:51;1.20;99.90
20732;DHT22;10527;52.124;5.196;2023-02-10T04:13:20;1.20;99.90
20732;DHT22;10527;52.124;5.196;2023-02-10T04:15:47;1.20;99.90
20732;DHT22;10527;52.124;5.196;2023-02-10T04:18:15;1.20;99.90
20732;DHT22;10527;52.124;5.196;2023-02-10T04:20:41;1.20;99.90
20732;DHT22;10527;52.124;5.196;2023-02-10T04:23:08;1.20;99.90
20732;DHT22;10527;52.124;5.196;2023-02-10T04:25:35;1.20;99.90
20732;DHT22;10527;52.124;5.196;2023-02-10T04:28:02;1.10;99.90
20732;DHT22;10527;52.124;5.196;2023-02-10T04:30:29;1.10;99.90
20732;DHT22;10527;52.124;5.196;2023-02-10T04:32:55;1.10;99.90
20732;DHT22;10527;52.124;5.196;2023-02-10T04:35:22;1.20;99.90
20732;DHT22;10527;52.124;5.196;2023-02-10T04:37:52;1.10;99.90
20732;DHT22;10527;52.124;5.196;2023-02-10T04:40:18;1.10;99.90
20732;DHT22;10527;52.124;5.196;2023-02-10T04:42:45;1.20;99.90
20732;DHT22;10527;52.124;5.196;2023-02-10T04:45:18;1.20;99.90
20732;DHT22;10527;52.124;5.196;2023-02-10T04:47:45;1.10;99.90
20732;DHT22;10527;52.124;5.196;2023-02-10T04:50:12;1.10;99.90
20732;DHT22;10527;52.124;5.196;2023-02-10T04:52:39;1.10;99.90
20732;DHT22;10527;52.124;5.196;2023-02-10T04:55:09;1.10;99.90
20732;DHT22;10527;52.124;5.196;2023-02-10T04:57:36;1.10;99.90
20732;DHT22;10527;52.124;5.196;2023-02-10T05:00:04;1.10;99.90
20732;DHT22;10527;52.124;5.196;2023-02-10T05:02:31;1.10;99.90
20732;DHT22;10527;52.124;5.196;2023-02-10T05:04:58;1.10;99.90
20732;DHT22;10527;52.124;5.196;2023-02-10T05:07:25;1.10;99.90
20732;DHT22;10527;52.124;5.196;2023-02-10T05:09:52;1.10;99.90
20732;DHT22;10527;52.124;5.196;2023-02-10T05:12:19;1.10;99.90
20732;DHT22;10527;52.124;5.196;2023-02-10T05:14:46;1.20;99.90
20732;DHT22;10527;52.124;5.196;2023-02-10T05:17:15;1.20;99.90
20732;DHT22;10527;52.124;5.196;2023-02-10T05:19:42;1.20;99.90
20732;DHT22;10527;52.124;5.196;2023-02-10T05:22:09;1.20;99.90
20732;DHT22;10527;52.124;5.196;2023-02-10T05:24:38;1.20;99.90
20732;DHT22;10527;52.124;5.196;2023-02-10T05:27:11;1.20;99.90
20732;DHT22;10527;52.124;5.196;2023-02-10T05:29:44;1.20;99.90
20732;DHT22;10527;52.124;5.196;2023-02-10T05:32:10;1.20;99.90
20732;DHT22;10527;52.124;5.196;2023-02-10T05:34:40;1.10;99.90
20732;DHT22;10527;52.124;5.196;2023-02-10T05:37:07;1.10;99.90
20732;DHT22;10527;52.124;5.196;2023-02-10T05:39:34;1.10;99.90
20732;DHT22;10527;52.124;5.196;2023-02-10T05:42:01;1.10;99.90
20732;DHT22;10527;52.124;5.196;2023-02-10T05:44:36;1.10;99.90
20732;DHT22;10527;52.124;5.196;2023-02-10T05:47:06;1.20;99.90
20732;DHT22;10527;52.124;5.196;2023-02-10T05:49:33;1.10;99.90
20732;DHT22;10527;52.124;5.196;2023-02-10T05:52:00;1.10;99.90
20732;DHT22;10527;52.124;5.196;2023-02-10T05:54:26;1.10;99.90
20732;DHT22;10527;52.124;5.196;2023-02-10T05:56:53;1.10;99.90
20732;DHT22;10527;52.124;5.196;2023-02-10T05:59:20;1.10;99.90
20732;DHT22;10527;52.124;5.196;2023-02-10T06:01:47;1.00;99.90
20732;DHT22;10527;52.124;5.196;2023-02-10T06:04:14;1.10;99.90
20732;DHT22;10527;52.124;5.196;2023-02-10T06:06:44;1.00;99.90
20732;DHT22;10527;52.124;5.196;2023-02-10T06:09:11;1.00;99.90
20732;DHT22;10527;52.124;5.196;2023-02-10T06:11:37;1.00;99.90
20732;DHT22;10527;52.124;5.196;2023-02-10T06:14:05;1.00;99.90
20732;DHT22;10527;52.124;5.196;2023-02-10T06:16:32;1.00;99.90
20732;DHT22;10527;52.124;5.196;2023-02-10T06:18:59;1.10;99.90
20732;DHT22;10527;52.124;5.196;2023-02-10T06:21:26;1.00;99.90
20732;DHT22;10527;52.124;5.196;2023-02-10T06:23:53;1.00;99.90
20732;DHT22;10527;52.124;5.196;2023-02-10T06:26:19;1.00;99.90
20732;DHT22;10527;52.124;5.196;2023-02-10T06:28:46;1.00;99.90
20732;DHT22;10527;52.124;5.196;2023-02-10T06:31:13;1.00;99.90
20732;DHT22;10527;52.124;5.196;2023-02-10T06:33:41;1.00;99.90
20732;DHT22;10527;52.124;5.196;2023-02-10T06:36:08;1.00;99.90
20732;DHT22;10527;52.124;5.196;2023-02-10T06:38:36;1.00;99.90
20732;DHT22;10527;52.124;5.196;2023-02-10T06:41:04;1.00;99.90
20732;DHT22;10527;52.124;5.196;2023-02-10T06:43:31;1.00;99.90
20732;DHT22;10527;52.124;5.196;2023-02-10T06:45:58;1.00;99.90
20732;DHT22;10527;52.124;5.196;2023-02-10T06:48:25;1.00;99.90
20732;DHT22;10527;52.124;5.196;2023-02-10T06:50:55;1.00;99.90
20732;DHT22;10527;52.124;5.196;2023-02-10T06:53:24;1.10;99.90
20732;DHT22;10527;52.124;5.196;2023-02-10T06:55:55;1.10;99.90
20732;DHT22;10527;52.124;5.196;2023-02-10T06:58:23;1.10;99.90
20732;DHT22;10527;52.124;5.196;2023-02-10T07:00:50;1.10;99.90
20732;DHT22;10527;52.124;5.196;2023-02-10T07:03:19;1.10;99.90
20732;DHT22;10527;52.124;5.196;2023-02-10T07:05:47;1.10;99.90
20732;DHT22;10527;52.124;5.196;2023-02-10T07:08:14;1.10;99.90
20732;DHT22;10527;52.124;5.196;2023-02-10T07:10:41;1.10;99.90
20732;DHT22;10527;52.124;5.196;2023-02-10T07:13:08;1.00;99.90
20732;DHT22;10527;52.124;5.196;2023-02-10T07:15:35;1.10;99.90
20732;DHT22;10527;52.124;5.196;2023-02-10T07:18:02;1.10;99.90
20732;DHT22;10527;52.124;5.196;2023-02-10T07:20:28;1.10;99.90
20732;DHT22;10527;52.124;5.196;2023-02-10T07:22:55;1.10;99.90
20732;DHT22;10527;52.124;5.196;2023-02-10T07:25:22;1.10;99.90
20732;DHT22;10527;52.124;5.196;2023-02-10T07:27:49;1.10;99.90
20732;DHT22;10527;52.124;5.196;2023-02-10T07:30:16;1.10;99.90
20732;DHT22;10527;52.124;5.196;2023-02-10T07:32:46;1.20;99.90
20732;DHT22;10527;52.124;5.196;2023-02-10T07:35:13;1.20;99.90
20732;DHT22;10527;52.124;5.196;2023-02-10T07:37:40;1.30;99.90
20732;DHT22;10527;52.124;5.196;2023-02-10T07:40:08;1.30;99.90
20732;DHT22;10527;52.124;5.196;2023-02-10T07:42:35;1.30;99.90
20732;DHT22;10527;52.124;5.196;2023-02-10T07:45:03;1.30;99.90
20732;DHT22;10527;52.124;5.196;2023-02-10T07:47:30;1.30;99.90
20732;DHT22;10527;52.124;5.196;2023-02-10T07:49:57;1.40;99.90
20732;DHT22;10527;52.124;5.196;2023-02-10T07:52:23;1.40;99.90
20732;DHT22;10527;52.124;5.196;2023-02-10T07:54:50;1.30;99.90
20732;DHT22;10527;52.124;5.196;2023-02-10T07:57:17;1.30;99.90
20732;DHT22;10527;52.124;5.196;2023-02-10T07:59:44;1.30;99.90
20732;DHT22;10527;52.124;5.196;2023-02-10T08:02:11;1.40;99.90
20732;DHT22;10527;52.124;5.196;2023-02-10T08:04:40;1.40;99.90
20732;DHT22;10527;52.124;5.196;2023-02-10T08:07:07;1.40;99.90
20732;DHT22;10527;52.124;5.196;2023-02-10T08:09:37;1.40;99.90
20732;DHT22;10527;52.124;5.196;2023-02-10T08:12:05;1.40;99.90
20732;DHT22;10527;52.124;5.196;2023-02-10T08:14:32;1.40;99.90
20732;DHT22;10527;52.124;5.196;2023-02-10T08:16:59;1.40;99.90
20732;DHT22;10527;52.124;5.196;2023-02-10T08:19:26;1.50;99.90
20732;DHT22;10527;52.124;5.196;2023-02-10T08:21:52;1.40;99.90
20732;DHT22;10527;52.124;5.196;2023-02-10T08:24:19;1.50;99.90
20732;DHT22;10527;52.124;5.196;2023-02-10T08:26:46;1.50;99.90
20732;DHT22;10527;52.124;5.196;2023-02-10T08:29:13;1.50;99.90
20732;DHT22;10527;52.124;5.196;2023-02-10T08:31:40;1.50;99.90
20732;DHT22;10527;52.124;5.196;2023-02-10T08:34:14;1.50;99.90
20732;DHT22;10527;52.124;5.196;2023-02-10T08:36:44;1.60;99.90
20732;DHT22;10527;52.124;5.196;2023-02-10T08:39:12;1.60;99.90
20732;DHT22;10527;52.124;5.196;2023-02-10T08:41:40;1.70;99.90
20732;DHT22;10527;52.124;5.196;2023-02-10T08:44:09;1.60;99.90
20732;DHT22;10527;52.124;5.196;2023-02-10T08:46:38;1.60;99.90
20732;DHT22;10527;52.124;5.196;2023-02-10T08:49:05;1.70;99.90
20732;DHT22;10527;52.124;5.196;2023-02-10T08:51:33;1.70;99.90
20732;DHT22;10527;52.124;5.196;2023-02-10T08:54:02;1.70;99.90
20732;DHT22;10527;52.124;5.196;2023-02-10T08:56:29;1.80;99.90
20732;DHT22;10527;52.124;5.196;2023-02-10T08:58:56;1.80;99.90
20732;DHT22;10527;52.124;5.196;2023-02-10T09:01:24;1.80;99.90
20732;DHT22;10527;52.124;5.196;2023-02-10T09:03:56;1.80;99.90
20732;DHT22;10527;52.124;5.196;2023-02-10T09:06:38;1.90;99.90
20732;DHT22;10527;52.124;5.196;2023-02-10T09:09:13;2.00;99.90
20732;DHT22;10527;52.124;5.196;2023-02-10T09:11:43;2.00;99.90
20732;DHT22;10527;52.124;5.196;2023-02-10T09:14:09;2.00;99.90
20732;DHT22;10527;52.124;5.196;2023-02-10T09:16:36;2.00;99.90
20732;DHT22;10527;52.124;5.196;2023-02-10T09:19:03;2.10;99.90
20732;DHT22;10527;52.124;5.196;2023-02-10T09:21:31;2.20;99.90
20732;DHT22;10527;52.124;5.196;2023-02-10T09:24:12;2.20;99.90
20732;DHT22;10527;52.124;5.196;2023-02-10T09:26:39;2.20;99.90
20732;DHT22;10527;52.124;5.196;2023-02-10T09:29:09;2.10;99.90
20732;DHT22;10527;52.124;5.196;2023-02-10T09:31:38;2.20;99.90
20732;DHT22;10527;52.124;5.196;2023-02-10T09:34:05;2.20;99.90
20732;DHT22;10527;52.124;5.196;2023-02-10T09:36:31;2.30;99.90
20732;DHT22;10527;52.124;5.196;2023-02-10T09:38:58;2.30;99.90
20732;DHT22;10527;52.124;5.196;2023-02-10T09:44:16;2.40;99.90
20732;DHT22;10527;52.124;5.196;2023-02-10T09:53:23;2.90;99.90
20732;DHT22;10527;52.124;5.196;2023-02-10T09:55:56;3.10;99.90
20732;DHT22;10527;52.124;5.196;2023-02-10T10:01:34;3.40;99.90
20732;DHT22;10527;52.124;5.196;2023-02-10T10:07:13;3.50;99.90
20732;DHT22;10527;52.124;5.196;2023-02-10T10:09:46;3.40;99.90
20732;DHT22;10527;52.124;5.196;2023-02-10T10:12:26;3.50;99.90
20732;DHT22;10527;52.124;5.196;2023-02-10T10:14:54;3.60;99.90
20732;DHT22;10527;52.124;5.196;2023-02-10T10:20:47;3.70;99.90
20732;DHT22;10527;52.124;5.196;2023-02-10T10:35:38;4.50;99.90
20732;DHT22;10527;52.124;5.196;2023-02-10T10:38:34;4.80;99.90
20732;DHT22;10527;52.124;5.196;2023-02-10T10:41:10;4.90;99.90
20732;DHT22;10527;52.124;5.196;2023-02-10T10:43:47;5.00;99.90
20732;DHT22;10527;52.124;5.196;2023-02-10T10:46:21;5.20;99.90
20732;DHT22;10527;52.124;5.196;2023-02-10T10:48:54;5.30;99.90
20732;DHT22;10527;52.124;5.196;2023-02-10T10:51:22;5.40;99.90
20732;DHT22;10527;52.124;5.196;2023-02-10T10:53:54;5.40;99.90
20732;DHT22;10527;52.124;5.196;2023-02-10T10:59:39;5.60;99.90
20732;DHT22;10527;52.124;5.196;2023-02-10T11:02:15;5.70;99.90
20732;DHT22;10527;52.124;5.196;2023-02-10T11:05:20;5.70;99.90
20732;DHT22;10527;52.124;5.196;2023-02-10T11:07:51;5.80;99.90
20732;DHT22;10527;52.124;5.196;2023-02-10T11:12:54;5.90;99.90
20732;DHT22;10527;52.124;5.196;2023-02-10T11:15:40;5.90;99.90
20732;DHT22;10527;52.124;5.196;2023-02-10T11:18:21;6.00;99.90
20732;DHT22;10527;52.124;5.196;2023-02-10T11:20:55;6.10;99.90
20732;DHT22;10527;52.124;5.196;2023-02-10T11:23:25;6.20;99.90
20732;DHT22;10527;52.124;5.196;2023-02-10T11:26:02;6.20;99.90
20732;DHT22;10527;52.124;5.196;2023-02-10T11:28:33;6.30;99.90
20732;DHT22;10527;52.124;5.196;2023-02-10T11:31:19;6.30;99.90
20732;DHT22;10527;52.124;5.196;2023-02-10T11:34:01;6.40;99.90
20732;DHT22;10527;52.124;5.196;2023-02-10T11:36:47;6.40;99.90
20732;DHT22;10527;52.124;5.196;2023-02-10T11:39:25;6.30;99.90
20732;DHT22;10527;52.124;5.196;2023-02-10T11:41:54;6.40;99.90
20732;DHT22;10527;52.124;5.196;2023-02-10T11:44:25;6.40;99.90
20732;DHT22;10527;52.124;5.196;2023-02-10T11:47:02;6.50;99.90
20732;DHT22;10527;52.124;5.196;2023-02-10T11:49:34;6.50;99.90
20732;DHT22;10527;52.124;5.196;2023-02-10T11:52:03;6.50;99.90
20732;DHT22;10527;52.124;5.196;2023-02-10T11:54:33;6.60;99.90
20732;DHT22;10527;52.124;5.196;2023-02-10T11:57:37;6.70;99.90
20732;DHT22;10527;52.124;5.196;2023-02-10T12:01:09;6.70;99.90
20732;DHT22;10527;52.124;5.196;2023-02-10T12:04:01;6.60;99.90
20732;DHT22;10527;52.124;5.196;2023-02-10T12:06:47;6.70;99.90
20732;DHT22;10527;52.124;5.196;2023-02-10T12:10:30;6.70;99.90
20732;DHT22;10527;52.124;5.196;2023-02-10T12:19:15;6.90;99.90
20732;DHT22;10527;52.124;5.196;2023-02-10T12:25:14;7.10;99.90
20732;DHT22;10527;52.124;5.196;2023-02-10T12:52:58;7.40;99.90
20732;DHT22;10527;52.124;5.196;2023-02-10T12:58:21;7.30;99.90
20732;DHT22;10527;52.124;5.196;2023-02-10T13:01:09;7.30;99.90
20732;DHT22;10527;52.124;5.196;2023-02-10T13:03:39;7.20;99.90
20732;DHT22;10527;52.124;5.196;2023-02-10T13:08:49;7.10;99.90
20732;DHT22;10527;52.124;5.196;2023-02-10T13:11:35;7.20;99.90
20732;DHT22;10527;52.124;5.196;2023-02-10T13:14:16;7.10;99.90
20732;DHT22;10527;52.124;5.196;2023-02-10T13:17:08;7.20;99.90
20732;DHT22;10527;52.124;5.196;2023-02-10T13:22:55;7.30;99.90
20732;DHT22;10527;52.124;5.196;2023-02-10T13:34:57;7.60;99.90
20732;DHT22;10527;52.124;5.196;2023-02-10T13:37:43;7.60;99.90
20732;DHT22;10527;52.124;5.196;2023-02-10T13:40:21;7.70;99.90
20732;DHT22;10527;52.124;5.196;2023-02-10T13:43:02;7.70;99.90
20732;DHT22;10527;52.124;5.196;2023-02-10T13:45:35;7.80;99.90
20732;DHT22;10527;52.124;5.196;2023-02-10T13:48:05;7.80;99.90
20732;DHT22;10527;52.124;5.196;2023-02-10T13:50:52;7.80;99.90
20732;DHT22;10527;52.124;5.196;2023-02-10T13:53:41;7.80;99.90
20732;DHT22;10527;52.124;5.196;2023-02-10T13:58:55;7.90;99.90
20732;DHT22;10527;52.124;5.196;2023-02-10T14:01:45;7.80;99.90
20732;DHT22;10527;52.124;5.196;2023-02-10T14:06:45;7.90;99.90
20732;DHT22;10527;52.124;5.196;2023-02-10T14:09:34;7.90;99.90
20732;DHT22;10527;52.124;5.196;2023-02-10T14:12:19;7.80;99.90
20732;DHT22;10527;52.124;5.196;2023-02-10T14:14:50;7.90;99.90
20732;DHT22;10527;52.124;5.196;2023-02-10T14:19:51;7.90;99.90
20732;DHT22;10527;52.124;5.196;2023-02-10T14:22:40;7.90;99.90
20732;DHT22;10527;52.124;5.196;2023-02-10T14:25:28;7.90;99.90
20732;DHT22;10527;52.124;5.196;2023-02-10T14:27:58;8.10;99.90
20732;DHT22;10527;52.124;5.196;2023-02-10T14:30:39;8.10;99.90
20732;DHT22;10527;52.124;5.196;2023-02-10T14:33:24;8.10;99.90
20732;DHT22;10527;52.124;5.196;2023-02-10T14:35:58;8.20;99.90
20732;DHT22;10527;52.124;5.196;2023-02-10T14:38:32;8.30;99.90
20732;DHT22;10527;52.124;5.196;2023-02-10T14:41:02;8.20;99.90
20732;DHT22;10527;52.124;5.196;2023-02-10T14:43:45;8.10;99.90
20732;DHT22;10527;52.124;5.196;2023-02-10T14:46:21;8.10;99.90
20732;DHT22;10527;52.124;5.196;2023-02-10T14:48:57;8.00;99.90
20732;DHT22;10527;52.124;5.196;2023-02-10T14:51:30;8.00;99.90
20732;DHT22;10527;52.124;5.196;2023-02-10T14:54:08;7.90;99.90
20732;DHT22;10527;52.124;5.196;2023-02-10T14:56:36;7.90;99.90
20732;DHT22;10527;52.124;5.196;2023-02-10T14:59:03;7.90;99.90
20732;DHT22;10527;52.124;5.196;2023-02-10T15:01:33;7.90;99.90
20732;DHT22;10527;52.124;5.196;2023-02-10T15:04:02;7.80;99.90
20732;DHT22;10527;52.124;5.196;2023-02-10T15:06:31;7.70;99.90
20732;DHT22;10527;52.124;5.196;2023-02-10T15:09:05;7.70;99.90
20732;DHT22;10527;52.124;5.196;2023-02-10T15:11:44;7.60;99.90
20732;DHT22;10527;52.124;5.196;2023-02-10T15:14:45;7.60;99.90
20732;DHT22;10527;52.124;5.196;2023-02-10T15:17:44;7.60;99.90
20732;DHT22;10527;52.124;5.196;2023-02-10T15:36:34;7.40;99.90
20732;DHT22;10527;52.124;5.196;2023-02-10T15:39:36;7.40;99.90
20732;DHT22;10527;52.124;5.196;2023-02-10T15:44:42;7.30;99.90
20732;DHT22;10527;52.124;5.196;2023-02-10T15:49:44;7.30;99.90
20732;DHT22;10527;52.124;5.196;2023-02-10T15:54:58;7.30;99.90
20732;DHT22;10527;52.124;5.196;2023-02-10T15:57:27;7.20;99.90
20732;DHT22;10527;52.124;5.196;2023-02-10T15:59:53;7.20;99.90
20732;DHT22;10527;52.124;5.196;2023-02-10T16:02:21;7.20;99.90
20732;DHT22;10527;52.124;5.196;2023-02-10T16:04:52;7.10;99.90
20732;DHT22;10527;52.124;5.196;2023-02-10T16:07:22;7.10;99.90
20732;DHT22;10527;52.124;5.196;2023-02-10T16:09:54;7.10;99.90
20732;DHT22;10527;52.124;5.196;2023-02-10T16:12:22;7.10;99.90
20732;DHT22;10527;52.124;5.196;2023-02-10T16:14:51;7.10;99.90
20732;DHT22;10527;52.124;5.196;2023-02-10T16:17:26;7.20;99.90
20732;DHT22;10527;52.124;5.196;2023-02-10T16:19:56;7.20;99.90
20732;DHT22;10527;52.124;5.196;2023-02-10T16:22:23;7.20;99.90
20732;DHT22;10527;52.124;5.196;2023-02-10T16:24:50;7.10;99.90
20732;DHT22;10527;52.124;5.196;2023-02-10T16:27:17;7.10;99.90
20732;DHT22;10527;52.124;5.196;2023-02-10T16:29:44;7.10;99.90
20732;DHT22;10527;52.124;5.196;2023-02-10T16:32:12;7.10;99.90
20732;DHT22;10527;52.124;5.196;2023-02-10T16:34:39;7.10;99.90
20732;DHT22;10527;52.124;5.196;2023-02-10T16:37:06;7.20;99.90
20732;DHT22;10527;52.124;5.196;2023-02-10T16:39:36;7.10;99.90
20732;DHT22;10527;52.124;5.196;2023-02-10T16:42:03;7.10;99.90
20732;DHT22;10527;52.124;5.196;2023-02-10T16:44:29;7.10;99.90
20732;DHT22;10527;52.124;5.196;2023-02-10T16:46:56;7.10;99.90
20732;DHT22;10527;52.124;5.196;2023-02-10T16:49:24;7.10;99.90
20732;DHT22;10527;52.124;5.196;2023-02-10T16:51:50;7.10;99.90
20732;DHT22;10527;52.124;5.196;2023-02-10T16:54:17;7.10;99.90
20732;DHT22;10527;52.124;5.196;2023-02-10T16:56:45;7.10;99.90
20732;DHT22;10527;52.124;5.196;2023-02-10T16:59:17;7.10;99.90
20732;DHT22;10527;52.124;5.196;2023-02-10T17:01:47;7.10;99.90
20732;DHT22;10527;52.124;5.196;2023-02-10T17:04:14;7.10;99.90
20732;DHT22;10527;52.124;5.196;2023-02-10T17:06:46;7.10;99.90
20732;DHT22;10527;52.124;5.196;2023-02-10T17:09:21;7.10;99.90
20732;DHT22;10527;52.124;5.196;2023-02-10T17:11:49;7.10;99.90
20732;DHT22;10527;52.124;5.196;2023-02-10T17:14:17;7.10;99.90
20732;DHT22;10527;52.124;5.196;2023-02-10T17:16:46;7.20;99.90
20732;DHT22;10527;52.124;5.196;2023-02-10T17:19:19;7.10;99.90
20732;DHT22;10527;52.124;5.196;2023-02-10T17:21:52;7.20;99.90
20732;DHT22;10527;52.124;5.196;2023-02-10T17:24:19;7.20;99.90
20732;DHT22;10527;52.124;5.196;2023-02-10T17:26:49;7.10;99.90
20732;DHT22;10527;52.124;5.196;2023-02-10T17:29:20;7.10;99.90
20732;DHT22;10527;52.124;5.196;2023-02-10T17:31:48;7.20;99.90
20732;DHT22;10527;52.124;5.196;2023-02-10T17:34:15;7.20;99.90
20732;DHT22;10527;52.124;5.196;2023-02-10T17:36:45;7.10;99.90
20732;DHT22;10527;52.124;5.196;2023-02-10T17:39:18;7.20;99.90
20732;DHT22;10527;52.124;5.196;2023-02-10T17:41:53;7.20;99.90
20732;DHT22;10527;52.124;5.196;2023-02-10T17:44:21;7.20;99.90
20732;DHT22;10527;52.124;5.196;2023-02-10T17:46:47;7.20;99.90
20732;DHT22;10527;52.124;5.196;2023-02-10T17:49:27;7.10;99.90
20732;DHT22;10527;52.124;5.196;2023-02-10T17:51:57;7.20;99.90
20732;DHT22;10527;52.124;5.196;2023-02-10T17:54:25;7.20;99.90
20732;DHT22;10527;52.124;5.196;2023-02-10T17:56:53;7.10;99.90
20732;DHT22;10527;52.124;5.196;2023-02-10T17:59:20;7.10;99.90
20732;DHT22;10527;52.124;5.196;2023-02-10T18:01:47;7.10;99.90
20732;DHT22;10527;52.124;5.196;2023-02-10T18:04:13;7.10;99.90
20732;DHT22;10527;52.124;5.196;2023-02-10T18:06:42;7.10;99.90
20732;DHT22;10527;52.124;5.196;2023-02-10T18:09:09;7.10;99.90
20732;DHT22;10527;52.124;5.196;2023-02-10T18:11:40;7.10;99.90
20732;DHT22;10527;52.124;5.196;2023-02-10T18:14:09;7.10;99.90
20732;DHT22;10527;52.124;5.196;2023-02-10T18:16:39;7.10;99.90
20732;DHT22;10527;52.124;5.196;2023-02-10T18:19:09;7.10;99.90
20732;DHT22;10527;52.124;5.196;2023-02-10T18:21:39;7.10;99.90
20732;DHT22;10527;52.124;5.196;2023-02-10T18:24:09;7.10;99.90
20732;DHT22;10527;52.124;5.196;2023-02-10T18:26:36;7.10;99.90
20732;DHT22;10527;52.124;5.196;2023-02-10T18:29:06;7.10;99.90
20732;DHT22;10527;52.124;5.196;2023-02-10T18:31:33;7.10;99.90
20732;DHT22;10527;52.124;5.196;2023-02-10T18:34:00;7.10;99.90
20732;DHT22;10527;52.124;5.196;2023-02-10T18:36:27;7.10;99.90
20732;DHT22;10527;52.124;5.196;2023-02-10T18:38:54;7.10;99.90
20732;DHT22;10527;52.124;5.196;2023-02-10T18:41:21;7.10;99.90
20732;DHT22;10527;52.124;5.196;2023-02-10T18:43:48;7.10;99.90
20732;DHT22;10527;52.124;5.196;2023-02-10T18:46:18;7.10;99.90